Airfield :
LOGIN :

Register | Disclaimer

   EN    FR    IT 

 










Legend :    VFR   Marginal VFR   IFR   Intensive IFR   Very Intensive IFR
Visi :
Ceiling :
>= 8 km
>= 3000ft
5 to 8 km
1000 to 3000 ft
1500m to 5 km
500 to 1000 ft
800 to 1500m
200 to 500 ft
< 800m
< 200 ft
Symbols :   Thunderstorms  Fog  Heavy snow  Heavy precipitations  Wind > 20 kt
SIGMETs :     Misc.  Thunderstorms  Icing  Turbulence  Mountain Waves  Volcanic Ashes







- Airport Elevation : 416 ft
- IATA code : OVD


LEAS - Asturias

CURRENT METAR :
  • 280030Z 00000KT 9999 SCT016 SCT030 17/17 Q1018 TEMPO 3000 -DZ BKN008

EXPIRED METARs :
  • 280000Z 00000KT 9999 SCT016 BKN028 17/17 Q1018 TEMPO 3000 -DZ BKN008
  • 272330Z 00000KT 9999 FEW007 BKN016 BKN026 17/17 Q1018 TEMPO 3000 -DZ BKN008
  • 272300Z 00000KT 9000 FEW003 BKN013 BKN026 17/17 Q1018 TEMPO 3000 -DZ BKN008
  • 272230Z VRB01KT 6000 FEW003 BKN008 BKN017 17/17 Q1018 TEMPO 3000 -DZ BKN005
  • 272200Z 32003KT 290V010 2500 -DZ BKN002 BKN005 17/17 Q1019 TEMPO 1000 BCFG
  • 272147Z 32005KT 270V020 2500 -DZ BKN002 BKN007 17/17 Q1019 TEMPO 1000 BCFG
  • 272130Z VRB02KT 3800 -DZ FEW003 BKN005 BKN011 17/17 Q1019 TEMPO 1000 BCFG

TAF TAF LEAS
Valid from the 27 at 21:00 until the 28 at 21:00 UTC


272000Z 2721/2821 28006KT 8000 SCT010 BKN016 TX23/2815Z TN17/2805Z
TEMPO 2721/2809 BKN010
PROB40
TEMPO 2721/2807 3000 -DZ BR BKN005
TEMPO 2811/2815 02010KT
No reported NOTAMs for that airfield.



MET'MAP, your aeronautical weather chart ! - Copyright ORBIFLY December 2007 - Disclaimer

ORBIFLY MET'MAP TEAM :

Programming & Development : Alexandra Zaïnal
Concept & Development : Baudouin d'Aumeries
Co-Development & Prog : Marc-Olivier Méhu
Technical & hardware support : Manuel Goepfert

Contact : metmap@orbifly.com




SOURCES & CREDITS :

   NOAA